Monte Alegre de Goias, Brazil
Current Conditions -  °F | °C
As of 11:00 PM on Friday 19 Dec 2014 (Local Time) from SBBR Reporting Station
Broken Clouds Broken Clouds  
Wind Chill: 72°   Ceiling: 10000
Heat Index: 72°   Visibility: 6mi
Dew Point: 66°   Wind: 3mph
Humidity: 83%   Direction: 330°NNW
Pressure: 30"   Gusts: NA
Location:  13.26°S, 46.9°W
Report Text: SBBR 200100Z 33003KT 9999 FEW020 BKN100 22/19 Q1016
Loading
Personal Weather Stations






























Interactive Weather Map New forecast layout! Learn more

10-Day Weather Forecast

Advertisements
Track Severe Weather on mobile